Airport View

Enter AWOS ICAO identifier for current METAR.

ex. KFNL

CYCD 212300Z 07005KT 050V120 20SM SCT018 OVC049 16/13 A3004 RMK CF3SC5 SLP173 DENSITY ALT 200FT

21 Sep 2019 23:54

Other Area AWOS: CWEL - CWGB - CWVF - CYVR

TAF CYCD 211738Z 2118/2204 VRB03KT P6SM SCT012 BKN050 TEMPO 2118/2120 SCT008 BKN012 PROB30 2118/2120 BKN008 FM212000 10008KT P6SM SCT020 BKN050 TEMPO 2121/2204 P6SM -SHRA BKN020 BECMG 2201/2203 14008KT RMK NXT FCST BY 220000Z